sensor_id;sensor_type;location;lat;lon;timestamp;P1;durP1;ratioP1;P2;durP2;ratioP2
30872;SDS011;17579;42.690;2.586;2023-05-07T00:00:48;3.75;;;3.42;;
30872;SDS011;17579;42.690;2.586;2023-05-07T00:03:17;3.85;;;3.55;;
30872;SDS011;17579;42.690;2.586;2023-05-07T00:05:51;4.95;;;3.40;;
30872;SDS011;17579;42.690;2.586;2023-05-07T00:08:28;2.78;;;2.58;;
30872;SDS011;17579;42.690;2.586;2023-05-07T00:10:55;3.72;;;2.90;;
30872;SDS011;17579;42.690;2.586;2023-05-07T00:13:24;3.80;;;3.40;;
30872;SDS011;17579;42.690;2.586;2023-05-07T00:16:01;4.20;;;3.60;;
30872;SDS011;17579;42.690;2.586;2023-05-07T00:18:30;3.65;;;3.35;;
30872;SDS011;17579;42.690;2.586;2023-05-07T00:20:59;3.72;;;3.30;;
30872;SDS011;17579;42.690;2.586;2023-05-07T00:23:34;3.35;;;3.05;;
30872;SDS011;17579;42.690;2.586;2023-05-07T00:26:23;3.92;;;3.53;;
30872;SDS011;17579;42.690;2.586;2023-05-07T00:28:51;4.15;;;3.45;;
30872;SDS011;17579;42.690;2.586;2023-05-07T00:31:19;4.00;;;3.20;;
30872;SDS011;17579;42.690;2.586;2023-05-07T00:33:47;3.85;;;3.17;;
30872;SDS011;17579;42.690;2.586;2023-05-07T00:36:18;3.67;;;3.30;;
30872;SDS011;17579;42.690;2.586;2023-05-07T00:38:44;3.47;;;3.17;;
30872;SDS011;17579;42.690;2.586;2023-05-07T00:41:10;3.78;;;3.47;;
30872;SDS011;17579;42.690;2.586;2023-05-07T00:43:36;3.45;;;3.15;;
30872;SDS011;17579;42.690;2.586;2023-05-07T00:46:04;3.70;;;3.42;;
30872;SDS011;17579;42.690;2.586;2023-05-07T00:48:30;4.50;;;3.60;;
30872;SDS011;17579;42.690;2.586;2023-05-07T00:53:45;4.90;;;3.55;;
30872;SDS011;17579;42.690;2.586;2023-05-07T00:56:22;3.08;;;2.70;;
30872;SDS011;17579;42.690;2.586;2023-05-07T00:59:09;6.82;;;3.45;;
30872;SDS011;17579;42.690;2.586;2023-05-07T01:01:38;3.70;;;3.20;;
30872;SDS011;17579;42.690;2.586;2023-05-07T01:04:25;3.30;;;3.00;;
30872;SDS011;17579;42.690;2.586;2023-05-07T01:06:55;3.42;;;3.10;;
30872;SDS011;17579;42.690;2.586;2023-05-07T01:09:50;3.20;;;2.90;;
30872;SDS011;17579;42.690;2.586;2023-05-07T01:12:21;3.95;;;3.15;;
30872;SDS011;17579;42.690;2.586;2023-05-07T01:14:48;3.38;;;3.08;;
30872;SDS011;17579;42.690;2.586;2023-05-07T01:17:23;4.00;;;3.70;;
30872;SDS011;17579;42.690;2.586;2023-05-07T01:19:54;4.15;;;3.33;;
30872;SDS011;17579;42.690;2.586;2023-05-07T01:22:27;3.55;;;2.85;;
30872;SDS011;17579;42.690;2.586;2023-05-07T01:25:02;3.10;;;2.90;;
30872;SDS011;17579;42.690;2.586;2023-05-07T01:27:35;3.83;;;3.22;;
30872;SDS011;17579;42.690;2.586;2023-05-07T01:30:04;3.33;;;3.03;;
30872;SDS011;17579;42.690;2.586;2023-05-07T01:32:42;3.53;;;3.22;;
30872;SDS011;17579;42.690;2.586;2023-05-07T01:35:24;3.40;;;3.10;;
30872;SDS011;17579;42.690;2.586;2023-05-07T01:37:56;4.10;;;3.03;;
30872;SDS011;17579;42.690;2.586;2023-05-07T01:40:35;4.07;;;3.20;;
30872;SDS011;17579;42.690;2.586;2023-05-07T01:43:09;3.33;;;2.75;;
30872;SDS011;17579;42.690;2.586;2023-05-07T01:45:49;3.35;;;3.13;;
30872;SDS011;17579;42.690;2.586;2023-05-07T01:48:40;3.47;;;3.17;;
30872;SDS011;17579;42.690;2.586;2023-05-07T01:51:13;3.15;;;2.88;;
30872;SDS011;17579;42.690;2.586;2023-05-07T01:53:44;3.10;;;2.90;;
30872;SDS011;17579;42.690;2.586;2023-05-07T01:56:21;3.65;;;2.88;;
30872;SDS011;17579;42.690;2.586;2023-05-07T01:58:49;3.45;;;3.08;;
30872;SDS011;17579;42.690;2.586;2023-05-07T02:01:19;3.75;;;3.25;;
30872;SDS011;17579;42.690;2.586;2023-05-07T02:06:50;2.95;;;2.63;;
30872;SDS011;17579;42.690;2.586;2023-05-07T02:09:26;3.15;;;2.03;;
30872;SDS011;17579;42.690;2.586;2023-05-07T02:11:56;2.00;;;1.88;;
30872;SDS011;17579;42.690;2.586;2023-05-07T02:14:29;1.70;;;1.60;;
30872;SDS011;17579;42.690;2.586;2023-05-07T02:16:58;1.55;;;1.40;;
30872;SDS011;17579;42.690;2.586;2023-05-07T02:19:34;1.30;;;1.20;;
30872;SDS011;17579;42.690;2.586;2023-05-07T02:22:09;1.30;;;1.20;;
30872;SDS011;17579;42.690;2.586;2023-05-07T02:24:40;1.63;;;1.20;;
30872;SDS011;17579;42.690;2.586;2023-05-07T02:27:06;1.45;;;1.20;;
30872;SDS011;17579;42.690;2.586;2023-05-07T02:29:37;1.30;;;1.13;;
30872;SDS011;17579;42.690;2.586;2023-05-07T02:32:05;2.22;;;1.40;;
30872;SDS011;17579;42.690;2.586;2023-05-07T02:34:34;1.90;;;1.10;;
30872;SDS011;17579;42.690;2.586;2023-05-07T02:37:00;1.52;;;1.00;;
30872;SDS011;17579;42.690;2.586;2023-05-07T02:39:39;1.17;;;0.93;;
30872;SDS011;17579;42.690;2.586;2023-05-07T02:42:15;1.00;;;1.00;;
30872;SDS011;17579;42.690;2.586;2023-05-07T02:44:48;1.20;;;1.10;;
30872;SDS011;17579;42.690;2.586;2023-05-07T02:47:14;1.13;;;1.02;;
30872;SDS011;17579;42.690;2.586;2023-05-07T02:49:43;1.27;;;1.17;;
30872;SDS011;17579;42.690;2.586;2023-05-07T02:52:17;1.40;;;1.23;;
30872;SDS011;17579;42.690;2.586;2023-05-07T02:54:48;0.90;;;0.90;;
30872;SDS011;17579;42.690;2.586;2023-05-07T02:57:14;2.47;;;1.10;;
30872;SDS011;17579;42.690;2.586;2023-05-07T03:02:30;1.27;;;1.17;;
30872;SDS011;17579;42.690;2.586;2023-05-07T03:04:56;2.65;;;1.30;;
30872;SDS011;17579;42.690;2.586;2023-05-07T03:07:32;0.80;;;0.80;;
30872;SDS011;17579;42.690;2.586;2023-05-07T03:10:11;0.93;;;0.93;;
30872;SDS011;17579;42.690;2.586;2023-05-07T03:12:40;2.17;;;1.10;;
30872;SDS011;17579;42.690;2.586;2023-05-07T03:15:16;1.98;;;1.00;;
30872;SDS011;17579;42.690;2.586;2023-05-07T03:17:44;1.55;;;1.05;;
30872;SDS011;17579;42.690;2.586;2023-05-07T03:20:26;0.82;;;0.80;;
30872;SDS011;17579;42.690;2.586;2023-05-07T03:23:10;0.82;;;0.82;;
30872;SDS011;17579;42.690;2.586;2023-05-07T03:25:39;1.20;;;1.10;;
30872;SDS011;17579;42.690;2.586;2023-05-07T03:28:16;1.45;;;1.00;;
30872;SDS011;17579;42.690;2.586;2023-05-07T03:31:02;1.88;;;1.05;;
30872;SDS011;17579;42.690;2.586;2023-05-07T03:33:34;1.20;;;1.10;;
30872;SDS011;17579;42.690;2.586;2023-05-07T03:36:16;1.17;;;1.00;;
30872;SDS011;17579;42.690;2.586;2023-05-07T03:39:23;1.45;;;1.05;;
30872;SDS011;17579;42.690;2.586;2023-05-07T03:41:49;1.05;;;0.93;;
30872;SDS011;17579;42.690;2.586;2023-05-07T03:44:21;0.82;;;0.80;;
30872;SDS011;17579;42.690;2.586;2023-05-07T03:46:50;1.10;;;0.93;;
30872;SDS011;17579;42.690;2.586;2023-05-07T03:50:49;0.82;;;0.82;;
30872;SDS011;17579;42.690;2.586;2023-05-07T03:52:41;1.92;;;1.15;;
30872;SDS011;17579;42.690;2.586;2023-05-07T03:55:18;3.35;;;1.40;;
30872;SDS011;17579;42.690;2.586;2023-05-07T03:57:46;1.60;;;0.93;;
30872;SDS011;17579;42.690;2.586;2023-05-07T04:00:15;1.27;;;1.17;;
30872;SDS011;17579;42.690;2.586;2023-05-07T04:02:50;1.05;;;0.95;;
30872;SDS011;17579;42.690;2.586;2023-05-07T04:05:18;0.90;;;0.90;;
30872;SDS011;17579;42.690;2.586;2023-05-07T04:07:50;0.90;;;0.90;;
30872;SDS011;17579;42.690;2.586;2023-05-07T04:10:18;1.75;;;0.93;;
30872;SDS011;17579;42.690;2.586;2023-05-07T04:12:56;1.08;;;0.82;;
30872;SDS011;17579;42.690;2.586;2023-05-07T04:15:32;1.40;;;1.00;;
30872;SDS011;17579;42.690;2.586;2023-05-07T04:18:00;1.23;;;1.13;;
30872;SDS011;17579;42.690;2.586;2023-05-07T04:23:34;1.50;;;1.20;;
30872;SDS011;17579;42.690;2.586;2023-05-07T04:29:10;0.93;;;0.90;;
30872;SDS011;17579;42.690;2.586;2023-05-07T04:31:41;1.85;;;1.15;;
30872;SDS011;17579;42.690;2.586;2023-05-07T04:34:09;0.82;;;0.82;;
30872;SDS011;17579;42.690;2.586;2023-05-07T04:36:46;0.82;;;0.82;;
30872;SDS011;17579;42.690;2.586;2023-05-07T04:39:15;2.13;;;1.08;;
30872;SDS011;17579;42.690;2.586;2023-05-07T04:41:43;1.10;;;0.90;;
30872;SDS011;17579;42.690;2.586;2023-05-07T04:44:11;2.53;;;1.10;;
30872;SDS011;17579;42.690;2.586;2023-05-07T04:46:39;1.63;;;0.85;;
30872;SDS011;17579;42.690;2.586;2023-05-07T04:49:15;1.88;;;0.98;;
30872;SDS011;17579;42.690;2.586;2023-05-07T04:51:43;1.27;;;1.17;;
30872;SDS011;17579;42.690;2.586;2023-05-07T04:54:29;1.08;;;0.98;;
30872;SDS011;17579;42.690;2.586;2023-05-07T04:57:06;1.60;;;1.17;;
30872;SDS011;17579;42.690;2.586;2023-05-07T04:59:46;1.65;;;1.10;;
30872;SDS011;17579;42.690;2.586;2023-05-07T05:02:23;0.90;;;0.90;;
30872;SDS011;17579;42.690;2.586;2023-05-07T05:04:49;2.15;;;0.80;;
30872;SDS011;17579;42.690;2.586;2023-05-07T05:07:17;1.25;;;0.85;;
30872;SDS011;17579;42.690;2.586;2023-05-07T05:09:54;1.05;;;0.80;;
30872;SDS011;17579;42.690;2.586;2023-05-07T05:12:22;1.42;;;1.00;;
30872;SDS011;17579;42.690;2.586;2023-05-07T05:14:56;0.90;;;0.90;;
30872;SDS011;17579;42.690;2.586;2023-05-07T05:17:41;1.85;;;0.80;;
30872;SDS011;17579;42.690;2.586;2023-05-07T05:20:15;2.78;;;1.27;;
30872;SDS011;17579;42.690;2.586;2023-05-07T05:22:46;0.90;;;0.90;;
30872;SDS011;17579;42.690;2.586;2023-05-07T05:25:11;1.10;;;1.00;;
30872;SDS011;17579;42.690;2.586;2023-05-07T05:27:50;0.88;;;0.80;;
30872;SDS011;17579;42.690;2.586;2023-05-07T05:30:21;1.17;;;0.90;;
30872;SDS011;17579;42.690;2.586;2023-05-07T05:35:56;0.90;;;0.90;;
30872;SDS011;17579;42.690;2.586;2023-05-07T05:38:32;0.88;;;0.88;;
30872;SDS011;17579;42.690;2.586;2023-05-07T05:41:06;1.20;;;1.10;;
30872;SDS011;17579;42.690;2.586;2023-05-07T05:43:34;0.93;;;0.88;;
30872;SDS011;17579;42.690;2.586;2023-05-07T05:46:38;1.63;;;1.00;;
30872;SDS011;17579;42.690;2.586;2023-05-07T05:48:55;2.03;;;1.30;;
30872;SDS011;17579;42.690;2.586;2023-05-07T05:51:30;1.20;;;1.10;;
30872;SDS011;17579;42.690;2.586;2023-05-07T05:54:08;1.10;;;1.00;;
30872;SDS011;17579;42.690;2.586;2023-05-07T05:56:37;1.67;;;0.95;;
30872;SDS011;17579;42.690;2.586;2023-05-07T05:59:27;2.47;;;1.00;;
30872;SDS011;17579;42.690;2.586;2023-05-07T06:01:55;2.22;;;1.00;;
30872;SDS011;17579;42.690;2.586;2023-05-07T06:04:29;1.30;;;1.00;;
30872;SDS011;17579;42.690;2.586;2023-05-07T06:07:10;0.90;;;0.85;;
30872;SDS011;17579;42.690;2.586;2023-05-07T06:09:36;1.38;;;1.10;;
30872;SDS011;17579;42.690;2.586;2023-05-07T06:12:04;1.10;;;1.00;;
30872;SDS011;17579;42.690;2.586;2023-05-07T06:14:32;2.25;;;1.52;;
30872;SDS011;17579;42.690;2.586;2023-05-07T06:17:13;2.28;;;1.20;;
30872;SDS011;17579;42.690;2.586;2023-05-07T06:19:47;1.75;;;1.30;;
30872;SDS011;17579;42.690;2.586;2023-05-07T06:25:13;2.15;;;1.33;;
30872;SDS011;17579;42.690;2.586;2023-05-07T06:27:44;2.65;;;1.40;;
30872;SDS011;17579;42.690;2.586;2023-05-07T06:30:10;2.78;;;1.38;;
30872;SDS011;17579;42.690;2.586;2023-05-07T06:32:58;2.38;;;1.30;;
30872;SDS011;17579;42.690;2.586;2023-05-07T06:35:44;1.77;;;1.33;;
30872;SDS011;17579;42.690;2.586;2023-05-07T06:38:15;1.73;;;1.30;;
30872;SDS011;17579;42.690;2.586;2023-05-07T06:40:48;1.73;;;1.20;;
30872;SDS011;17579;42.690;2.586;2023-05-07T06:43:19;1.98;;;1.27;;
30872;SDS011;17579;42.690;2.586;2023-05-07T06:45:47;1.95;;;1.30;;
30872;SDS011;17579;42.690;2.586;2023-05-07T06:48:26;1.77;;;1.50;;
30872;SDS011;17579;42.690;2.586;2023-05-07T06:50:51;2.22;;;1.40;;
30872;SDS011;17579;42.690;2.586;2023-05-07T06:53:20;2.00;;;1.70;;
30872;SDS011;17579;42.690;2.586;2023-05-07T06:55:51;1.88;;;1.50;;
30872;SDS011;17579;42.690;2.586;2023-05-07T06:59:18;2.45;;;1.20;;
30872;SDS011;17579;42.690;2.586;2023-05-07T07:01:28;3.10;;;1.60;;
30872;SDS011;17579;42.690;2.586;2023-05-07T07:04:00;4.60;;;1.60;;
30872;SDS011;17579;42.690;2.586;2023-05-07T07:06:26;2.22;;;1.60;;
30872;SDS011;17579;42.690;2.586;2023-05-07T07:09:14;3.03;;;1.83;;
30872;SDS011;17579;42.690;2.586;2023-05-07T07:11:45;1.73;;;1.42;;
30872;SDS011;17579;42.690;2.586;2023-05-07T07:14:21;2.17;;;1.15;;
30872;SDS011;17579;42.690;2.586;2023-05-07T07:16:52;1.60;;;1.35;;
30872;SDS011;17579;42.690;2.586;2023-05-07T07:19:20;3.38;;;1.58;;
30872;SDS011;17579;42.690;2.586;2023-05-07T07:21:46;4.05;;;1.70;;
30872;SDS011;17579;42.690;2.586;2023-05-07T07:24:17;2.10;;;1.40;;
30872;SDS011;17579;42.690;2.586;2023-05-07T07:26:51;4.35;;;1.40;;
30872;SDS011;17579;42.690;2.586;2023-05-07T07:29:28;1.70;;;1.30;;
30872;SDS011;17579;42.690;2.586;2023-05-07T07:31:59;1.50;;;1.40;;
30872;SDS011;17579;42.690;2.586;2023-05-07T07:34:28;1.92;;;1.40;;
30872;SDS011;17579;42.690;2.586;2023-05-07T07:36:53;1.67;;;1.50;;
30872;SDS011;17579;42.690;2.586;2023-05-07T07:39:33;3.10;;;1.60;;
30872;SDS011;17579;42.690;2.586;2023-05-07T07:41:59;3.75;;;1.27;;
30872;SDS011;17579;42.690;2.586;2023-05-07T07:44:27;3.78;;;1.30;;
30872;SDS011;17579;42.690;2.586;2023-05-07T07:46:56;1.30;;;1.15;;
30872;SDS011;17579;42.690;2.586;2023-05-07T07:49:31;1.88;;;1.48;;
30872;SDS011;17579;42.690;2.586;2023-05-07T07:52:03;1.95;;;1.45;;
30872;SDS011;17579;42.690;2.586;2023-05-07T07:54:38;2.03;;;1.40;;
30872;SDS011;17579;42.690;2.586;2023-05-07T07:57:10;1.33;;;1.08;;
30872;SDS011;17579;42.690;2.586;2023-05-07T07:59:39;3.25;;;1.45;;
30872;SDS011;17579;42.690;2.586;2023-05-07T08:02:08;2.70;;;1.42;;
30872;SDS011;17579;42.690;2.586;2023-05-07T08:04:39;3.25;;;1.42;;
30872;SDS011;17579;42.690;2.586;2023-05-07T08:07:11;1.65;;;1.30;;
30872;SDS011;17579;42.690;2.586;2023-05-07T08:10:33;1.73;;;1.00;;
30872;SDS011;17579;42.690;2.586;2023-05-07T08:12:47;2.28;;;1.40;;
30872;SDS011;17579;42.690;2.586;2023-05-07T08:15:18;2.03;;;1.33;;
30872;SDS011;17579;42.690;2.586;2023-05-07T08:18:04;1.75;;;1.40;;
30872;SDS011;17579;42.690;2.586;2023-05-07T08:20:42;2.00;;;1.30;;
30872;SDS011;17579;42.690;2.586;2023-05-07T08:23:10;4.05;;;1.45;;
30872;SDS011;17579;42.690;2.586;2023-05-07T08:25:37;3.72;;;1.80;;
30872;SDS011;17579;42.690;2.586;2023-05-07T08:28:12;5.43;;;1.60;;
30872;SDS011;17579;42.690;2.586;2023-05-07T08:30:49;2.65;;;1.30;;
30872;SDS011;17579;42.690;2.586;2023-05-07T08:33:28;1.30;;;1.20;;
30872;SDS011;17579;42.690;2.586;2023-05-07T08:36:48;1.55;;;1.27;;
30872;SDS011;17579;42.690;2.586;2023-05-07T08:39:26;1.45;;;1.15;;
30872;SDS011;17579;42.690;2.586;2023-05-07T08:42:15;2.45;;;1.30;;
30872;SDS011;17579;42.690;2.586;2023-05-07T08:44:47;2.88;;;1.17;;
30872;SDS011;17579;42.690;2.586;2023-05-07T08:50:26;1.58;;;0.77;;
30872;SDS011;17579;42.690;2.586;2023-05-07T08:52:52;2.13;;;0.95;;
30872;SDS011;17579;42.690;2.586;2023-05-07T08:55:28;2.70;;;1.23;;
30872;SDS011;17579;42.690;2.586;2023-05-07T08:58:00;2.45;;;1.23;;
30872;SDS011;17579;42.690;2.586;2023-05-07T09:03:52;1.15;;;0.90;;
30872;SDS011;17579;42.690;2.586;2023-05-07T09:06:41;2.72;;;1.20;;
30872;SDS011;17579;42.690;2.586;2023-05-07T09:09:21;1.20;;;1.10;;
30872;SDS011;17579;42.690;2.586;2023-05-07T09:11:56;2.15;;;1.15;;
30872;SDS011;17579;42.690;2.586;2023-05-07T09:14:37;1.40;;;1.00;;
30872;SDS011;17579;42.690;2.586;2023-05-07T09:17:34;1.13;;;1.02;;
30872;SDS011;17579;42.690;2.586;2023-05-07T09:20:09;3.13;;;1.20;;
30872;SDS011;17579;42.690;2.586;2023-05-07T09:22:37;1.48;;;1.23;;
30872;SDS011;17579;42.690;2.586;2023-05-07T09:25:17;2.75;;;1.20;;
30872;SDS011;17579;42.690;2.586;2023-05-07T09:28:23;1.95;;;0.90;;
30872;SDS011;17579;42.690;2.586;2023-05-07T09:31:09;6.18;;;1.02;;
30872;SDS011;17579;42.690;2.586;2023-05-07T09:33:39;1.58;;;0.93;;
30872;SDS011;17579;42.690;2.586;2023-05-07T09:36:06;0.70;;;0.65;;
30872;SDS011;17579;42.690;2.586;2023-05-07T09:38:53;0.80;;;0.80;;
30872;SDS011;17579;42.690;2.586;2023-05-07T09:41:43;1.13;;;0.95;;
30872;SDS011;17579;42.690;2.586;2023-05-07T09:44:10;1.83;;;0.75;;
30872;SDS011;17579;42.690;2.586;2023-05-07T09:46:43;0.93;;;0.77;;
30872;SDS011;17579;42.690;2.586;2023-05-07T09:52:08;2.55;;;0.90;;
30872;SDS011;17579;42.690;2.586;2023-05-07T09:54:41;1.77;;;0.90;;
30872;SDS011;17579;42.690;2.586;2023-05-07T09:58:13;1.33;;;0.93;;
30872;SDS011;17579;42.690;2.586;2023-05-07T10:00:28;1.50;;;1.13;;
30872;SDS011;17579;42.690;2.586;2023-05-07T10:02:57;1.02;;;0.70;;
30872;SDS011;17579;42.690;2.586;2023-05-07T10:05:31;1.15;;;0.80;;
30872;SDS011;17579;42.690;2.586;2023-05-07T10:08:09;1.55;;;1.05;;
30872;SDS011;17579;42.690;2.586;2023-05-07T10:14:52;0.90;;;0.70;;
30872;SDS011;17579;42.690;2.586;2023-05-07T10:16:52;1.52;;;0.77;;
30872;SDS011;17579;42.690;2.586;2023-05-07T10:19:26;1.30;;;1.00;;
30872;SDS011;17579;42.690;2.586;2023-05-07T10:22:41;1.40;;;0.60;;
30872;SDS011;17579;42.690;2.586;2023-05-07T10:25:30;2.40;;;0.77;;
30872;SDS011;17579;42.690;2.586;2023-05-07T10:28:19;2.60;;;0.90;;
30872;SDS011;17579;42.690;2.586;2023-05-07T10:33:29;0.85;;;0.80;;
30872;SDS011;17579;42.690;2.586;2023-05-07T10:35:59;1.98;;;1.00;;
30872;SDS011;17579;42.690;2.586;2023-05-07T10:38:33;1.23;;;0.98;;
30872;SDS011;17579;42.690;2.586;2023-05-07T10:41:13;3.17;;;1.00;;
30872;SDS011;17579;42.690;2.586;2023-05-07T10:43:55;0.80;;;0.80;;
30872;SDS011;17579;42.690;2.586;2023-05-07T10:46:32;0.65;;;0.60;;
30872;SDS011;17579;42.690;2.586;2023-05-07T10:49:08;0.77;;;0.70;;
30872;SDS011;17579;42.690;2.586;2023-05-07T10:51:39;0.73;;;0.60;;
30872;SDS011;17579;42.690;2.586;2023-05-07T11:00:03;1.55;;;1.13;;
30872;SDS011;17579;42.690;2.586;2023-05-07T11:03:09;2.30;;;0.60;;
30872;SDS011;17579;42.690;2.586;2023-05-07T11:05:41;0.60;;;0.60;;
30872;SDS011;17579;42.690;2.586;2023-05-07T11:08:10;0.50;;;0.50;;
30872;SDS011;17579;42.690;2.586;2023-05-07T11:13:14;0.73;;;0.60;;
30872;SDS011;17579;42.690;2.586;2023-05-07T11:15:42;0.50;;;0.50;;
30872;SDS011;17579;42.690;2.586;2023-05-07T11:24:06;0.88;;;0.70;;
30872;SDS011;17579;42.690;2.586;2023-05-07T11:29:18;0.90;;;0.70;;
30872;SDS011;17579;42.690;2.586;2023-05-07T11:36:57;2.53;;;0.90;;
30872;SDS011;17579;42.690;2.586;2023-05-07T11:39:44;1.08;;;0.63;;
30872;SDS011;17579;42.690;2.586;2023-05-07T11:42:27;0.60;;;0.60;;
30872;SDS011;17579;42.690;2.586;2023-05-07T11:47:51;1.38;;;0.65;;
30872;SDS011;17579;42.690;2.586;2023-05-07T11:53:34;1.00;;;0.50;;
30872;SDS011;17579;42.690;2.586;2023-05-07T11:56:11;0.90;;;0.70;;
30872;SDS011;17579;42.690;2.586;2023-05-07T11:58:41;0.75;;;0.50;;
30872;SDS011;17579;42.690;2.586;2023-05-07T12:01:30;0.70;;;0.70;;
30872;SDS011;17579;42.690;2.586;2023-05-07T12:04:08;1.25;;;0.60;;
30872;SDS011;17579;42.690;2.586;2023-05-07T12:06:39;2.30;;;0.80;;
30872;SDS011;17579;42.690;2.586;2023-05-07T12:09:04;0.77;;;0.57;;
30872;SDS011;17579;42.690;2.586;2023-05-07T12:11:32;4.15;;;0.80;;
30872;SDS011;17579;42.690;2.586;2023-05-07T12:14:00;0.90;;;0.80;;
30872;SDS011;17579;42.690;2.586;2023-05-07T12:16:29;1.23;;;0.80;;
30872;SDS011;17579;42.690;2.586;2023-05-07T12:19:02;0.88;;;0.88;;
30872;SDS011;17579;42.690;2.586;2023-05-07T12:21:31;1.10;;;0.70;;
30872;SDS011;17579;42.690;2.586;2023-05-07T12:24:04;0.88;;;0.73;;
30872;SDS011;17579;42.690;2.586;2023-05-07T12:26:43;1.95;;;0.95;;
30872;SDS011;17579;42.690;2.586;2023-05-07T12:32:16;1.38;;;0.82;;
30872;SDS011;17579;42.690;2.586;2023-05-07T12:34:45;1.20;;;0.82;;
30872;SDS011;17579;42.690;2.586;2023-05-07T12:37:28;1.38;;;1.00;;
30872;SDS011;17579;42.690;2.586;2023-05-07T12:40:09;1.05;;;0.90;;
30872;SDS011;17579;42.690;2.586;2023-05-07T12:42:41;1.33;;;1.10;;
30872;SDS011;17579;42.690;2.586;2023-05-07T12:45:11;2.25;;;1.40;;
30872;SDS011;17579;42.690;2.586;2023-05-07T12:47:48;5.22;;;1.70;;
30872;SDS011;17579;42.690;2.586;2023-05-07T12:50:17;2.42;;;1.15;;
30872;SDS011;17579;42.690;2.586;2023-05-07T12:52:49;1.48;;;1.00;;
30872;SDS011;17579;42.690;2.586;2023-05-07T12:55:17;1.77;;;1.10;;
30872;SDS011;17579;42.690;2.586;2023-05-07T12:57:47;5.10;;;1.50;;
30872;SDS011;17579;42.690;2.586;2023-05-07T13:05:48;2.80;;;1.38;;
30872;SDS011;17579;42.690;2.586;2023-05-07T13:11:12;3.03;;;0.93;;
30872;SDS011;17579;42.690;2.586;2023-05-07T13:13:41;1.35;;;0.88;;
30872;SDS011;17579;42.690;2.586;2023-05-07T13:16:09;3.30;;;1.00;;
30872;SDS011;17579;42.690;2.586;2023-05-07T13:18:51;2.40;;;1.48;;
30872;SDS011;17579;42.690;2.586;2023-05-07T13:21:19;4.60;;;1.10;;
30872;SDS011;17579;42.690;2.586;2023-05-07T13:23:54;1.98;;;1.15;;
30872;SDS011;17579;42.690;2.586;2023-05-07T13:26:30;1.70;;;1.20;;
30872;SDS011;17579;42.690;2.586;2023-05-07T13:29:08;3.00;;;1.10;;
30872;SDS011;17579;42.690;2.586;2023-05-07T13:31:45;2.20;;;1.20;;
30872;SDS011;17579;42.690;2.586;2023-05-07T13:34:29;2.97;;;1.17;;
30872;SDS011;17579;42.690;2.586;2023-05-07T13:37:01;2.72;;;1.20;;
30872;SDS011;17579;42.690;2.586;2023-05-07T13:39:33;2.53;;;1.00;;
30872;SDS011;17579;42.690;2.586;2023-05-07T13:42:07;2.15;;;1.00;;
30872;SDS011;17579;42.690;2.586;2023-05-07T13:44:36;2.47;;;1.30;;
30872;SDS011;17579;42.690;2.586;2023-05-07T13:50:16;2.33;;;1.15;;
30872;SDS011;17579;42.690;2.586;2023-05-07T13:52:56;4.63;;;1.20;;
30872;SDS011;17579;42.690;2.586;2023-05-07T13:55:25;2.67;;;1.10;;
30872;SDS011;17579;42.690;2.586;2023-05-07T13:57:57;1.50;;;1.10;;
30872;SDS011;17579;42.690;2.586;2023-05-07T14:00:29;0.90;;;0.90;;
30872;SDS011;17579;42.690;2.586;2023-05-07T14:02:55;2.60;;;1.02;;
30872;SDS011;17579;42.690;2.586;2023-05-07T14:05:24;1.58;;;0.90;;
30872;SDS011;17579;42.690;2.586;2023-05-07T14:07:53;1.67;;;0.90;;
30872;SDS011;17579;42.690;2.586;2023-05-07T14:10:25;1.70;;;0.70;;
30872;SDS011;17579;42.690;2.586;2023-05-07T14:13:06;1.55;;;0.75;;
30872;SDS011;17579;42.690;2.586;2023-05-07T14:15:34;1.48;;;0.88;;
30872;SDS011;17579;42.690;2.586;2023-05-07T14:18:02;1.20;;;0.70;;
30872;SDS011;17579;42.690;2.586;2023-05-07T14:20:38;1.25;;;0.88;;
30872;SDS011;17579;42.690;2.586;2023-05-07T14:23:11;0.80;;;0.80;;
30872;SDS011;17579;42.690;2.586;2023-05-07T14:25:40;1.67;;;0.88;;
30872;SDS011;17579;42.690;2.586;2023-05-07T14:28:13;2.17;;;1.00;;
30872;SDS011;17579;42.690;2.586;2023-05-07T14:30:42;1.35;;;0.90;;
30872;SDS011;17579;42.690;2.586;2023-05-07T14:33:10;1.20;;;0.52;;
30872;SDS011;17579;42.690;2.586;2023-05-07T14:35:38;1.58;;;0.80;;
30872;SDS011;17579;42.690;2.586;2023-05-07T14:38:13;2.40;;;1.30;;
30872;SDS011;17579;42.690;2.586;2023-05-07T14:40:41;0.82;;;0.80;;
30872;SDS011;17579;42.690;2.586;2023-05-07T14:43:27;1.08;;;0.73;;
30872;SDS011;17579;42.690;2.586;2023-05-07T14:46:04;1.08;;;0.70;;
30872;SDS011;17579;42.690;2.586;2023-05-07T14:49:08;1.20;;;0.80;;
30872;SDS011;17579;42.690;2.586;2023-05-07T14:51:41;1.02;;;0.75;;
30872;SDS011;17579;42.690;2.586;2023-05-07T14:54:12;1.30;;;0.90;;
30872;SDS011;17579;42.690;2.586;2023-05-07T14:56:38;2.05;;;1.05;;
30872;SDS011;17579;42.690;2.586;2023-05-07T14:59:05;2.55;;;1.23;;
30872;SDS011;17579;42.690;2.586;2023-05-07T15:01:31;1.20;;;0.80;;
30872;SDS011;17579;42.690;2.586;2023-05-07T15:04:00;2.05;;;1.05;;
30872;SDS011;17579;42.690;2.586;2023-05-07T15:06:31;1.92;;;1.10;;
30872;SDS011;17579;42.690;2.586;2023-05-07T15:08:57;1.60;;;1.13;;
30872;SDS011;17579;42.690;2.586;2023-05-07T15:11:36;1.73;;;1.10;;
30872;SDS011;17579;42.690;2.586;2023-05-07T15:14:08;1.40;;;1.10;;
30872;SDS011;17579;42.690;2.586;2023-05-07T15:19:38;1.83;;;1.20;;
30872;SDS011;17579;42.690;2.586;2023-05-07T15:22:11;2.35;;;1.35;;
30872;SDS011;17579;42.690;2.586;2023-05-07T15:24:49;2.08;;;1.20;;
30872;SDS011;17579;42.690;2.586;2023-05-07T15:27:23;1.75;;;1.20;;
30872;SDS011;17579;42.690;2.586;2023-05-07T15:29:58;1.92;;;1.10;;
30872;SDS011;17579;42.690;2.586;2023-05-07T15:32:24;1.42;;;1.00;;
30872;SDS011;17579;42.690;2.586;2023-05-07T15:34:55;2.35;;;1.02;;
30872;SDS011;17579;42.690;2.586;2023-05-07T15:37:21;0.82;;;0.80;;
30872;SDS011;17579;42.690;2.586;2023-05-07T15:39:51;1.40;;;1.00;;
30872;SDS011;17579;42.690;2.586;2023-05-07T15:42:20;1.50;;;1.00;;
30872;SDS011;17579;42.690;2.586;2023-05-07T15:44:56;1.20;;;0.80;;
30872;SDS011;17579;42.690;2.586;2023-05-07T15:47:57;1.58;;;0.80;;
30872;SDS011;17579;42.690;2.586;2023-05-07T15:53:19;1.50;;;0.80;;
30872;SDS011;17579;42.690;2.586;2023-05-07T15:55:44;1.42;;;1.00;;
30872;SDS011;17579;42.690;2.586;2023-05-07T15:58:13;0.90;;;0.63;;
30872;SDS011;17579;42.690;2.586;2023-05-07T16:00:49;0.95;;;0.75;;
30872;SDS011;17579;42.690;2.586;2023-05-07T16:03:18;0.80;;;0.80;;
30872;SDS011;17579;42.690;2.586;2023-05-07T16:05:51;0.70;;;0.70;;
30872;SDS011;17579;42.690;2.586;2023-05-07T16:08:22;0.93;;;0.70;;
30872;SDS011;17579;42.690;2.586;2023-05-07T16:13:55;2.70;;;0.63;;
30872;SDS011;17579;42.690;2.586;2023-05-07T16:16:23;2.33;;;0.88;;
30872;SDS011;17579;42.690;2.586;2023-05-07T16:18:54;1.20;;;0.65;;
30872;SDS011;17579;42.690;2.586;2023-05-07T16:21:23;0.60;;;0.60;;
30872;SDS011;17579;42.690;2.586;2023-05-07T16:24:03;0.85;;;0.68;;
30872;SDS011;17579;42.690;2.586;2023-05-07T16:26:49;0.50;;;0.50;;
30872;SDS011;17579;42.690;2.586;2023-05-07T16:32:08;0.82;;;0.50;;
30872;SDS011;17579;42.690;2.586;2023-05-07T16:34:34;1.48;;;0.75;;
30872;SDS011;17579;42.690;2.586;2023-05-07T16:39:51;1.25;;;0.82;;
30872;SDS011;17579;42.690;2.586;2023-05-07T16:42:26;1.80;;;1.20;;
30872;SDS011;17579;42.690;2.586;2023-05-07T16:44:56;0.98;;;0.93;;
30872;SDS011;17579;42.690;2.586;2023-05-07T16:47:25;0.70;;;0.70;;
30872;SDS011;17579;42.690;2.586;2023-05-07T16:49:50;0.85;;;0.82;;
30872;SDS011;17579;42.690;2.586;2023-05-07T16:52:20;1.45;;;0.70;;
30872;SDS011;17579;42.690;2.586;2023-05-07T16:54:57;1.40;;;0.90;;
30872;SDS011;17579;42.690;2.586;2023-05-07T16:57:25;2.60;;;1.65;;
30872;SDS011;17579;42.690;2.586;2023-05-07T16:59:55;2.25;;;1.00;;
30872;SDS011;17579;42.690;2.586;2023-05-07T17:02:41;0.80;;;0.80;;